Time;durP1;ratioP1;P1;durP2;ratioP2;P2;SDS_P1;SDS_P2;PMS_P1;PMS_P2;Temp;Humidity;BMP_temperature;BMP_pressure;BME280_temperature;BME280_humidity;BME280_pressure;Samples;Min_cycle;Max_cycle;Signal;HPM_P1;HPM_P2
2022/01/30 00:01:31;;;;;;;;;;;;;;;17.91;35.12;101302.06;4983309;28;1898;-60
2022/01/30 00:03:56;;;;;;;;;;;;;;;17.85;35.20;101300.34;4981064;28;842;-60
2022/01/30 00:06:21;;;;;;;;;;;;;;;17.97;35.12;101300.16;4981437;28;755;-60
2022/01/30 00:08:48;;;;;;;;;;;;;;;17.86;35.29;101294.56;4981892;28;838;-61
2022/01/30 00:11:18;;;;;;;;;;;;;;;17.86;35.03;101274.50;4980918;28;823;-60
2022/01/30 00:13:44;;;;;;;;;;;;;;;17.81;35.28;101280.81;4981909;28;874;-61
2022/01/30 00:16:10;;;;;;;;;;;;;;;17.84;35.26;101276.66;4984119;28;894;-60
2022/01/30 00:21:39;;;;;;;;;;;;;;;17.87;35.39;101276.16;4960638;28;1905;-60
2022/01/30 00:24:13;;;;;;;;;;;;;;;17.81;35.29;101288.22;4989609;28;1050;-60
2022/01/30 00:26:40;;;;;;;;;;;;;;;17.84;35.15;101279.41;5000432;28;838;-60
2022/01/30 00:29:06;;;;;;;;;;;;;;;17.75;35.22;101268.97;5002599;28;854;-60
2022/01/30 00:31:33;;;;;;;;;;;;;;;17.83;35.34;101270.34;4999853;28;786;-60
2022/01/30 00:33:59;;;;;;;;;;;;;;;17.73;35.41;101259.31;5000903;28;850;-62
2022/01/30 00:36:25;;;;;;;;;;;;;;;17.79;35.29;101258.22;4982589;28;847;-62
2022/01/30 00:38:52;;;;;;;;;;;;;;;17.83;35.11;101253.84;4988865;28;865;-62
2022/01/30 00:41:18;;;;;;;;;;;;;;;17.72;35.31;101247.47;5018768;28;1906;-62
2022/01/30 00:43:43;;;;;;;;;;;;;;;17.69;35.42;101253.53;5019284;28;770;-62
2022/01/30 00:46:09;;;;;;;;;;;;;;;17.85;35.36;101261.81;5001458;28;813;-62
2022/01/30 00:48:34;;;;;;;;;;;;;;;17.79;35.34;101242.56;5000200;28;770;-61
2022/01/30 00:51:00;;;;;;;;;;;;;;;17.80;35.19;101237.88;4982393;28;1207;-62
2022/01/30 00:53:26;;;;;;;;;;;;;;;17.78;35.44;101238.16;4999727;28;802;-62
2022/01/30 00:55:51;;;;;;;;;;;;;;;17.72;35.37;101239.22;4999940;28;817;-62
2022/01/30 00:58:17;;;;;;;;;;;;;;;17.69;35.23;101247.22;5000124;28;858;-62
2022/01/30 01:00:43;;;;;;;;;;;;;;;17.75;35.31;101243.34;4991462;28;1117;-61
2022/01/30 01:03:08;;;;;;;;;;;;;;;17.89;35.16;101240.94;5018458;28;1971;-61
2022/01/30 01:05:35;;;;;;;;;;;;;;;17.84;35.19;101232.66;5018491;28;782;-61
2022/01/30 01:08:08;;;;;;;;;;;;;;;17.90;35.27;101217.81;5000394;28;1070;-62
2022/01/30 01:10:43;;;;;;;;;;;;;;;17.81;35.15;101206.53;5018005;28;924;-62
2022/01/30 01:23:47;;;;;;;;;;;;;;;17.90;35.00;101176.56;5012732;28;1295;-62
2022/01/30 01:26:13;;;;;;;;;;;;;;;17.88;35.03;101181.50;4999446;28;806;-62
2022/01/30 01:28:39;;;;;;;;;;;;;;;17.93;35.08;101159.53;4999252;28;822;-62
2022/01/30 01:31:04;;;;;;;;;;;;;;;17.76;35.47;101160.56;4982301;28;917;-62
2022/01/30 01:36:15;;;;;;;;;;;;;;;17.92;34.95;101155.13;4972119;28;1032;-62
2022/01/30 01:38:41;;;;;;;;;;;;;;;17.86;35.29;101142.44;4999011;28;856;-62
2022/01/30 01:41:06;;;;;;;;;;;;;;;17.91;34.90;101128.72;4986580;28;1914;-62
2022/01/30 01:43:32;;;;;;;;;;;;;;;18.02;34.84;101129.53;5018267;28;762;-62
2022/01/30 01:45:59;;;;;;;;;;;;;;;17.95;35.11;101127.09;5005561;28;818;-62
2022/01/30 01:48:25;;;;;;;;;;;;;;;17.94;35.09;101128.19;4998860;28;792;-62
2022/01/30 01:51:04;;;;;;;;;;;;;;;17.86;35.26;101121.25;4998700;28;1102;-62
2022/01/30 01:53:29;;;;;;;;;;;;;;;17.90;34.91;101116.03;5017519;28;814;-62
2022/01/30 01:55:55;;;;;;;;;;;;;;;17.90;35.13;101100.34;5017598;28;829;-61
2022/01/30 01:58:23;;;;;;;;;;;;;;;17.99;35.29;101111.66;4999882;28;1119;-62
2022/01/30 02:01:02;;;;;;;;;;;;;;;17.95;35.09;101113.31;4985776;28;1918;-62
2022/01/30 02:03:28;;;;;;;;;;;;;;;18.02;34.87;101096.53;4984167;28;1125;-62
2022/01/30 02:05:57;;;;;;;;;;;;;;;18.06;34.76;101087.47;4998050;28;823;-62
2022/01/30 02:24:25;;;;;;;;;;;;;;;17.59;35.71;101086.56;4980634;28;1164;-62
2022/01/30 02:26:51;;;;;;;;;;;;;;;17.26;36.33;101096.13;4984683;28;1160;-61
2022/01/30 02:29:18;;;;;;;;;;;;;;;17.07;36.77;101085.63;4993284;28;1294;-62
2022/01/30 02:31:44;;;;;;;;;;;;;;;17.18;36.47;101082.91;5006368;28;1108;-62
2022/01/30 02:34:09;;;;;;;;;;;;;;;16.95;36.83;101067.72;4980653;28;1165;-62
2022/01/30 02:36:44;;;;;;;;;;;;;;;17.03;36.65;101068.03;4993418;28;1401;-62
2022/01/30 02:39:10;;;;;;;;;;;;;;;16.97;36.86;101071.84;4994859;28;1099;-61
2022/01/30 02:41:38;;;;;;;;;;;;;;;17.08;36.77;101059.81;4985505;28;1974;-61
2022/01/30 02:44:10;;;;;;;;;;;;;;;17.23;36.10;101063.69;4982638;28;795;-61
2022/01/30 02:46:41;;;;;;;;;;;;;;;17.40;35.86;101063.44;4999259;28;841;-62
2022/01/30 02:52:03;;;;;;;;;;;;;;;17.35;36.07;101045.03;4958500;28;1327;-61
2022/01/30 02:54:29;;;;;;;;;;;;;;;17.40;35.70;101042.28;4983471;28;1088;-62
2022/01/30 02:56:55;;;;;;;;;;;;;;;17.47;35.62;101038.44;4980307;28;1100;-61
2022/01/30 02:59:21;;;;;;;;;;;;;;;17.50;35.70;101024.16;4982852;28;1301;-61
2022/01/30 03:01:46;;;;;;;;;;;;;;;17.39;35.76;101021.41;4979628;28;1907;-62
2022/01/30 03:04:12;;;;;;;;;;;;;;;17.48;35.64;101018.09;4997520;28;881;-62
2022/01/30 03:06:37;;;;;;;;;;;;;;;17.47;35.60;101014.50;4984868;28;1351;-62
2022/01/30 03:09:03;;;;;;;;;;;;;;;17.47;35.66;101009.00;4980092;28;1159;-61
2022/01/30 03:11:29;;;;;;;;;;;;;;;17.48;35.76;101012.59;4980097;28;1145;-61
2022/01/30 03:13:54;;;;;;;;;;;;;;;17.48;35.91;101001.59;4981150;28;1220;-62
2022/01/30 03:16:23;;;;;;;;;;;;;;;17.57;35.49;101013.69;4979897;28;1100;-61
2022/01/30 03:18:49;;;;;;;;;;;;;;;17.56;35.65;101001.06;4982057;28;1283;-62
2022/01/30 03:21:15;;;;;;;;;;;;;;;17.56;35.71;101001.06;4985803;28;1914;-62
2022/01/30 03:23:40;;;;;;;;;;;;;;;17.60;35.49;100991.97;4997230;28;1176;-61
2022/01/30 03:26:06;;;;;;;;;;;;;;;17.57;35.54;100992.53;4997282;28;786;-62
2022/01/30 03:28:52;;;;;;;;;;;;;;;17.59;35.61;100986.75;4993210;28;1342;-61
2022/01/30 03:31:24;;;;;;;;;;;;;;;17.54;35.73;100992.25;4989504;28;1097;-62
2022/01/30 03:33:50;;;;;;;;;;;;;;;17.55;35.53;100994.72;4987829;28;1147;-62
2022/01/30 03:36:21;;;;;;;;;;;;;;;17.57;35.57;100991.69;4983133;28;1177;-62
2022/01/30 03:38:46;;;;;;;;;;;;;;;17.61;35.53;100987.28;4998231;28;868;-62
2022/01/30 03:41:14;;;;;;;;;;;;;;;17.61;35.46;100982.63;4997961;28;1985;-61
2022/01/30 03:43:39;;;;;;;;;;;;;;;17.54;35.39;100986.75;4996214;28;1140;-60
2022/01/30 03:46:06;;;;;;;;;;;;;;;17.54;35.49;100979.31;4984272;28;1386;-61
2022/01/30 03:48:31;;;;;;;;;;;;;;;17.58;35.64;100976.84;4997052;28;861;-60
2022/01/30 03:51:04;;;;;;;;;;;;;;;17.57;35.65;100972.44;4979412;28;1173;-61
2022/01/30 03:53:33;;;;;;;;;;;;;;;17.54;35.41;100970.25;4997071;28;782;-61
2022/01/30 03:56:00;;;;;;;;;;;;;;;17.53;35.41;100957.59;4997045;28;862;-61
2022/01/30 03:58:30;;;;;;;;;;;;;;;17.52;35.60;100956.78;5000628;28;832;-60
2022/01/30 04:00:57;;;;;;;;;;;;;;;17.68;35.15;100960.34;4981816;28;1973;-60
2022/01/30 04:03:23;;;;;;;;;;;;;;;17.66;35.31;100959.00;4979320;28;1234;-61
2022/01/30 04:05:48;;;;;;;;;;;;;;;17.58;35.48;100963.09;4979020;28;1429;-60
2022/01/30 04:08:14;;;;;;;;;;;;;;;17.60;35.56;100969.16;4979339;28;1248;-62
2022/01/30 04:10:48;;;;;;;;;;;;;;;17.57;35.29;100958.69;4996079;28;1117;-61
2022/01/30 04:13:24;;;;;;;;;;;;;;;17.53;35.42;100957.59;4997819;28;1125;-62
2022/01/30 04:16:08;;;;;;;;;;;;;;;17.57;35.40;100955.94;4996877;28;640;-62
2022/01/30 04:18:54;;;;;;;;;;;;;;;17.56;35.44;100940.56;4992960;28;811;-61
2022/01/30 04:21:45;;;;;;;;;;;;;;;17.60;35.20;100934.25;4971747;28;1902;-60
2022/01/30 04:24:24;;;;;;;;;;;;;;;17.83;34.96;100944.94;4979089;28;1341;-59
2022/01/30 04:26:49;;;;;;;;;;;;;;;17.75;35.30;100943.56;4996551;28;771;-59
2022/01/30 04:29:27;;;;;;;;;;;;;;;17.76;35.11;100937.78;4986914;28;1546;-58
2022/01/30 04:32:29;;;;;;;;;;;;;;;17.87;35.05;100933.09;4980572;28;1267;-61
2022/01/30 04:35:24;;;;;;;;;;;;;;;17.99;34.63;100924.56;5005600;28;933;-61
2022/01/30 04:38:16;;;;;;;;;;;;;;;17.95;34.57;100915.25;4982666;28;1196;-62
2022/01/30 05:08:07;;;;;;;;;;;;;;;18.10;32.59;100879.41;4993841;28;1280;-63
2022/01/30 05:10:52;;;;;;;;;;;;;;;18.08;32.72;100881.59;4999763;28;659;-60
2022/01/30 05:13:49;;;;;;;;;;;;;;;18.23;32.10;100877.97;4992729;28;1473;-61
2022/01/30 05:16:35;;;;;;;;;;;;;;;18.04;32.51;100865.94;4988135;28;1168;-61
2022/01/30 05:19:13;;;;;;;;;;;;;;;18.00;32.63;100882.19;4998978;28;719;-61
2022/01/30 05:21:58;;;;;;;;;;;;;;;17.99;32.89;100877.78;4959698;28;1977;-61
2022/01/30 05:24:42;;;;;;;;;;;;;;;17.88;33.09;100881.63;5018461;28;1114;-58
2022/01/30 05:27:26;;;;;;;;;;;;;;;17.87;33.28;100867.06;4981838;28;1214;-59
2022/01/30 05:30:16;;;;;;;;;;;;;;;17.89;33.18;100862.13;4988256;28;1124;-59
2022/01/30 05:33:02;;;;;;;;;;;;;;;17.73;33.47;100857.78;4965925;28;1128;-60
2022/01/30 05:35:36;;;;;;;;;;;;;;;17.87;33.45;100863.50;4999052;28;810;-60
2022/01/30 05:38:21;;;;;;;;;;;;;;;17.75;33.51;100841.81;5011544;28;771;-59
2022/01/30 05:41:04;;;;;;;;;;;;;;;17.82;33.64;100841.50;4983135;28;1967;-60
2022/01/30 05:44:15;;;;;;;;;;;;;;;17.72;33.62;100845.94;5011493;28;1144;-60
2022/01/30 05:47:04;;;;;;;;;;;;;;;17.79;33.86;100829.97;4968735;28;1231;-59
2022/01/30 05:49:48;;;;;;;;;;;;;;;17.77;33.60;100825.84;5011254;28;652;-61
2022/01/30 05:52:17;;;;;;;;;;;;;;;17.83;33.71;100826.66;4971383;28;1371;-60
2022/01/30 05:55:06;;;;;;;;;;;;;;;17.84;33.56;100817.28;4993300;28;1191;-61
2022/01/30 05:57:31;;;;;;;;;;;;;;;17.70;33.98;100815.16;4980989;28;1128;-62
2022/01/30 06:00:00;;;;;;;;;;;;;;;17.78;34.02;100814.56;4981715;28;1381;-63
2022/01/30 06:02:45;;;;;;;;;;;;;;;17.85;33.86;100806.03;4998934;28;1905;-61
2022/01/30 06:05:13;;;;;;;;;;;;;;;17.88;33.68;100804.63;4983855;28;1101;-61
2022/01/30 06:07:48;;;;;;;;;;;;;;;17.90;33.43;100794.97;4980776;28;1120;-60
2022/01/30 06:10:14;;;;;;;;;;;;;;;17.91;33.36;100798.59;5000033;28;1111;-61
2022/01/30 06:12:40;;;;;;;;;;;;;;;17.76;33.50;100786.50;4999941;28;1141;-61
2022/01/30 06:15:05;;;;;;;;;;;;;;;17.83;33.47;100782.66;5011718;28;841;-61
2022/01/30 06:17:31;;;;;;;;;;;;;;;17.71;33.82;100782.97;4981108;28;1305;-62
2022/01/30 06:19:57;;;;;;;;;;;;;;;17.78;33.35;100778.81;4998137;28;711;-65
2022/01/30 06:22:41;;;;;;;;;;;;;;;17.89;32.35;100778.75;5011732;28;1910;-65
2022/01/30 06:25:32;;;;;;;;;;;;;;;17.95;32.38;100773.00;4982563;28;1263;-62
2022/01/30 06:28:16;;;;;;;;;;;;;;;17.87;32.64;100769.97;5017274;28;730;-63
2022/01/30 06:30:57;;;;;;;;;;;;;;;17.88;32.61;100779.84;5002582;28;850;-63
2022/01/30 06:33:28;;;;;;;;;;;;;;;17.83;32.85;100785.41;4998005;28;700;-64
2022/01/30 06:36:26;;;;;;;;;;;;;;;17.79;32.13;100780.47;4975056;28;1147;-61
2022/01/30 06:39:13;;;;;;;;;;;;;;;17.85;31.67;100772.19;4995284;28;1028;-64
2022/01/30 06:41:59;;;;;;;;;;;;;;;17.83;31.57;100774.41;4991880;28;1964;-65
2022/01/30 06:44:44;;;;;;;;;;;;;;;17.83;31.02;100757.91;5003941;28;616;-64
2022/01/30 06:47:41;;;;;;;;;;;;;;;17.85;30.77;100767.50;4927936;28;1183;-64
2022/01/30 06:50:33;;;;;;;;;;;;;;;17.90;30.71;100744.66;4993787;28;1345;-64
2022/01/30 06:53:17;;;;;;;;;;;;;;;17.97;30.30;100761.69;5016791;28;676;-64
2022/01/30 06:56:01;;;;;;;;;;;;;;;17.97;30.37;100766.38;5004762;28;806;-64
2022/01/30 06:59:02;;;;;;;;;;;;;;;17.94;30.34;100765.03;4952958;29;1278;-64
2022/01/30 07:02:09;;;;;;;;;;;;;;;17.89;29.89;100765.00;4952378;29;1902;-64
2022/01/30 07:04:52;;;;;;;;;;;;;;;17.86;30.06;100751.81;4956107;29;631;-65
2022/01/30 07:07:36;;;;;;;;;;;;;;;17.82;29.91;100759.81;4999688;28;978;-65
2022/01/30 07:10:05;;;;;;;;;;;;;;;17.77;30.16;100760.66;4998532;28;929;-65
2022/01/30 07:12:30;;;;;;;;;;;;;;;17.78;29.97;100762.31;4997661;28;842;-65
2022/01/30 07:14:56;;;;;;;;;;;;;;;17.74;29.88;100757.63;5002518;28;853;-65
2022/01/30 07:17:21;;;;;;;;;;;;;;;17.76;29.85;100753.50;4997494;28;853;-65
2022/01/30 07:19:47;;;;;;;;;;;;;;;17.79;30.15;100761.22;4997809;28;978;-65
2022/01/30 07:22:12;;;;;;;;;;;;;;;17.75;30.06;100745.53;4999278;28;1969;-67
2022/01/30 07:24:37;;;;;;;;;;;;;;;17.67;30.54;100744.22;4997400;28;1239;-66
2022/01/30 07:27:03;;;;;;;;;;;;;;;17.75;30.24;100740.88;4996968;28;980;-64
2022/01/30 07:29:29;;;;;;;;;;;;;;;17.64;30.31;100725.50;5000316;28;874;-64
2022/01/30 07:31:54;;;;;;;;;;;;;;;17.56;30.32;100732.44;4997367;28;791;-64
2022/01/30 07:34:22;;;;;;;;;;;;;;;17.51;30.29;100723.38;5002464;28;799;-65
2022/01/30 07:36:48;;;;;;;;;;;;;;;17.61;30.56;100717.81;4997386;28;897;-64
2022/01/30 07:39:16;;;;;;;;;;;;;;;17.60;30.63;100721.72;4979835;28;823;-64
2022/01/30 07:41:42;;;;;;;;;;;;;;;17.68;30.29;100712.03;4996802;28;1918;-64
2022/01/30 07:44:08;;;;;;;;;;;;;;;17.66;30.33;100717.81;5003079;28;926;-64
2022/01/30 07:46:35;;;;;;;;;;;;;;;17.74;30.44;100719.13;4981979;28;1293;-64
2022/01/30 07:49:00;;;;;;;;;;;;;;;17.92;30.12;100707.53;4996776;28;847;-63
2022/01/30 07:51:26;;;;;;;;;;;;;;;18.47;29.44;100706.59;4997751;28;854;-64
2022/01/30 07:53:51;;;;;;;;;;;;;;;18.99;28.70;100698.69;4997445;28;766;-63
2022/01/30 07:56:17;;;;;;;;;;;;;;;18.49;29.38;100692.53;4996941;28;981;-64
2022/01/30 07:58:42;;;;;;;;;;;;;;;17.99;30.31;100684.38;5002650;28;825;-64
2022/01/30 08:01:08;;;;;;;;;;;;;;;17.67;30.67;100671.88;5002087;28;1906;-64
2022/01/30 08:03:33;;;;;;;;;;;;;;;17.57;30.66;100678.25;4996699;28;826;-64
2022/01/30 08:05:59;;;;;;;;;;;;;;;17.38;31.33;100669.84;5001079;28;778;-64
2022/01/30 08:08:25;;;;;;;;;;;;;;;17.40;31.09;100657.47;5000800;28;823;-64
2022/01/30 08:10:50;;;;;;;;;;;;;;;17.53;31.07;100680.75;5019523;28;825;-64
2022/01/30 08:13:16;;;;;;;;;;;;;;;17.34;31.31;100669.56;5001193;28;765;-62
2022/01/30 08:15:45;;;;;;;;;;;;;;;17.16;31.29;100668.25;5004783;28;940;-62
2022/01/30 08:18:11;;;;;;;;;;;;;;;17.13;31.60;100671.56;5000641;28;809;-65
2022/01/30 08:20:36;;;;;;;;;;;;;;;16.99;31.67;100665.84;5000865;28;814;-66
2022/01/30 08:23:08;;;;;;;;;;;;;;;17.02;31.90;100656.22;5000453;28;1975;-65
2022/01/30 08:25:33;;;;;;;;;;;;;;;17.09;31.74;100671.28;5005528;28;786;-67
2022/01/30 08:27:58;;;;;;;;;;;;;;;17.63;31.03;100655.13;5000396;28;1408;-68
2022/01/30 08:30:27;;;;;;;;;;;;;;;18.13;30.45;100644.94;5002399;28;877;-68
2022/01/30 08:32:52;;;;;;;;;;;;;;;18.55;29.81;100647.31;5000343;28;949;-67
2022/01/30 08:35:18;;;;;;;;;;;;;;;18.72;29.34;100647.72;5000245;28;787;-66
2022/01/30 08:37:44;;;;;;;;;;;;;;;18.75;29.39;100638.03;5001627;28;1024;-66
2022/01/30 08:40:10;;;;;;;;;;;;;;;18.20;30.48;100641.84;5000240;28;917;-65
2022/01/30 08:42:35;;;;;;;;;;;;;;;17.85;30.98;100656.66;5000477;28;1976;-67
2022/01/30 08:45:01;;;;;;;;;;;;;;;17.93;31.01;100647.81;5010604;28;866;-64
2022/01/30 08:47:26;;;;;;;;;;;;;;;18.18;30.87;100643.25;5018948;28;897;-66
2022/01/30 08:49:52;;;;;;;;;;;;;;;18.13;31.03;100650.44;5015397;28;977;-67
2022/01/30 08:52:19;;;;;;;;;;;;;;;18.22;31.01;100625.88;5000267;28;755;-66
2022/01/30 08:54:53;;;;;;;;;;;;;;;18.17;30.91;100627.84;4999977;28;870;-66
2022/01/30 08:57:19;;;;;;;;;;;;;;;18.28;30.78;100623.88;5000268;28;750;-66
2022/01/30 08:59:44;;;;;;;;;;;;;;;18.27;30.64;100644.25;5004740;28;1021;-66
2022/01/30 09:02:10;;;;;;;;;;;;;;;18.23;31.14;100652.28;5000478;28;1981;-66
2022/01/30 09:04:35;;;;;;;;;;;;;;;18.27;31.14;100658.00;5000223;28;918;-66
2022/01/30 09:07:01;;;;;;;;;;;;;;;18.27;31.17;100663.53;4999751;28;941;-66
2022/01/30 09:09:26;;;;;;;;;;;;;;;18.27;31.20;100653.34;4999273;28;894;-66
2022/01/30 09:11:52;;;;;;;;;;;;;;;18.33;31.18;100654.13;5000009;28;787;-66
2022/01/30 09:14:17;;;;;;;;;;;;;;;18.29;31.07;100655.81;5002246;28;924;-66
2022/01/30 09:16:44;;;;;;;;;;;;;;;18.46;31.06;100644.38;5004048;28;1052;-64
2022/01/30 09:19:09;;;;;;;;;;;;;;;18.36;31.22;100636.22;4999835;28;806;-67
2022/01/30 09:21:35;;;;;;;;;;;;;;;18.29;31.37;100640.09;4999620;28;1902;-69
2022/01/30 09:24:00;;;;;;;;;;;;;;;18.27;31.41;100660.78;4998950;28;1205;-68
2022/01/30 09:26:26;;;;;;;;;;;;;;;18.41;31.17;100653.50;4999528;28;774;-67
2022/01/30 09:28:51;;;;;;;;;;;;;;;18.33;31.26;100675.31;5001367;28;851;-68
2022/01/30 09:31:17;;;;;;;;;;;;;;;18.21;31.56;100664.69;4999216;28;767;-66
2022/01/30 09:33:42;;;;;;;;;;;;;;;17.19;33.07;100672.38;4999285;28;845;-66
2022/01/30 09:36:08;;;;;;;;;;;;;;;17.23;33.19;100667.97;4999374;28;838;-68
2022/01/30 09:38:33;;;;;;;;;;;;;;;17.17;33.34;100669.91;5011116;28;1251;-63
2022/01/30 09:40:59;;;;;;;;;;;;;;;16.66;33.92;100667.25;5012794;28;913;-60
2022/01/30 09:43:26;;;;;;;;;;;;;;;16.61;34.03;100665.34;4999592;28;1982;-63
2022/01/30 09:45:51;;;;;;;;;;;;;;;16.46;34.49;100659.88;4987162;28;893;-63
2022/01/30 09:48:17;;;;;;;;;;;;;;;16.71;33.70;100651.59;4999177;28;728;-65
2022/01/30 09:50:42;;;;;;;;;;;;;;;17.69;32.14;100634.75;4999324;28;769;-63
2022/01/30 09:53:08;;;;;;;;;;;;;;;17.35;32.78;100632.75;5001731;28;1492;-65
2022/01/30 09:55:33;;;;;;;;;;;;;;;16.92;33.17;100640.59;5006020;28;1094;-63
2022/01/30 09:57:59;;;;;;;;;;;;;;;17.26;32.95;100615.19;5004433;28;798;-63
2022/01/30 10:00:24;;;;;;;;;;;;;;;18.15;31.39;100616.31;5002378;28;933;-62
2022/01/30 10:02:50;;;;;;;;;;;;;;;18.36;31.22;100609.50;4998955;28;1914;-62
2022/01/30 10:05:16;;;;;;;;;;;;;;;17.67;32.32;100617.72;4999349;28;886;-61
2022/01/30 10:07:42;;;;;;;;;;;;;;;17.11;33.30;100610.59;5002453;28;826;-62
2022/01/30 10:10:08;;;;;;;;;;;;;;;18.10;31.88;100615.25;4998739;28;984;-64
2022/01/30 10:12:34;;;;;;;;;;;;;;;18.66;30.92;100603.97;4999000;28;802;-63
2022/01/30 10:15:04;;;;;;;;;;;;;;;17.90;32.01;100599.66;5000226;28;956;-63
2022/01/30 10:17:36;;;;;;;;;;;;;;;17.77;32.37;100590.13;4998659;28;813;-65
2022/01/30 10:20:04;;;;;;;;;;;;;;;18.43;31.23;100563.19;4998697;28;874;-65
2022/01/30 10:22:29;;;;;;;;;;;;;;;18.26;31.28;100579.34;4999793;28;1929;-62
2022/01/30 10:24:56;;;;;;;;;;;;;;;16.70;34.29;100570.31;5002296;28;1117;-62
2022/01/30 10:27:22;;;;;;;;;;;;;;;16.89;34.05;100561.50;5010178;28;1295;-64
2022/01/30 10:29:55;;;;;;;;;;;;;;;16.70;34.03;100540.09;5015514;28;1189;-64
2022/01/30 10:32:21;;;;;;;;;;;;;;;16.47;34.99;100536.09;5005890;28;1352;-63
2022/01/30 10:34:54;;;;;;;;;;;;;;;16.77;34.10;100517.84;4998028;28;842;-64
2022/01/30 10:37:21;;;;;;;;;;;;;;;16.81;34.30;100493.41;4982979;28;1139;-63
2022/01/30 10:39:55;;;;;;;;;;;;;;;16.63;34.26;100483.88;5007523;28;857;-63
2022/01/30 10:42:31;;;;;;;;;;;;;;;16.25;34.99;100467.81;4998420;28;1981;-66
2022/01/30 10:44:56;;;;;;;;;;;;;;;16.20;35.00;100449.47;5003882;28;824;-61
2022/01/30 10:47:22;;;;;;;;;;;;;;;16.67;34.64;100444.59;4964697;28;1104;-61
2022/01/30 10:49:48;;;;;;;;;;;;;;;17.03;33.83;100444.41;4998206;28;759;-60
2022/01/30 10:52:13;;;;;;;;;;;;;;;16.75;34.53;100440.44;4997614;28;830;-61
2022/01/30 10:54:39;;;;;;;;;;;;;;;16.53;35.24;100425.16;4997817;28;814;-61
2022/01/30 10:57:11;;;;;;;;;;;;;;;16.19;35.44;100422.31;5000501;28;890;-60
2022/01/30 10:59:42;;;;;;;;;;;;;;;16.07;36.15;100401.50;5000637;28;818;-62
2022/01/30 11:02:11;;;;;;;;;;;;;;;16.63;35.13;100388.59;4997414;28;1914;-63
2022/01/30 11:04:37;;;;;;;;;;;;;;;16.81;34.57;100400.06;4997748;28;839;-63
2022/01/30 11:07:02;;;;;;;;;;;;;;;16.64;34.95;100387.50;4997736;28;793;-59
2022/01/30 11:09:35;;;;;;;;;;;;;;;16.46;35.53;100386.22;5002455;28;740;-59
2022/01/30 11:12:06;;;;;;;;;;;;;;;16.35;35.69;100377.22;5001768;28;1339;-60
2022/01/30 11:14:38;;;;;;;;;;;;;;;16.24;35.77;100367.41;4987804;28;842;-65
2022/01/30 11:17:05;;;;;;;;;;;;;;;16.24;35.83;100372.88;5014978;28;790;-62
2022/01/30 11:19:31;;;;;;;;;;;;;;;16.24;35.87;100350.94;4997639;28;839;-60
2022/01/30 11:22:00;;;;;;;;;;;;;;;16.40;35.83;100352.50;4999032;28;1914;-63
2022/01/30 11:24:26;;;;;;;;;;;;;;;16.76;34.84;100357.78;4997642;28;1052;-62
2022/01/30 11:26:51;;;;;;;;;;;;;;;17.17;34.09;100333.91;4997405;28;847;-63
2022/01/30 11:29:17;;;;;;;;;;;;;;;17.40;33.71;100332.28;5002441;28;830;-62
2022/01/30 11:31:43;;;;;;;;;;;;;;;17.41;33.49;100329.25;4998365;28;825;-62
2022/01/30 11:34:08;;;;;;;;;;;;;;;17.21;34.26;100327.53;5001230;28;1010;-63
2022/01/30 11:36:37;;;;;;;;;;;;;;;16.81;34.75;100320.41;5005774;28;822;-62
2022/01/30 11:39:03;;;;;;;;;;;;;;;16.60;35.47;100301.34;4979066;28;830;-62
2022/01/30 11:41:31;;;;;;;;;;;;;;;16.51;36.04;100306.63;4997158;28;1909;-66
2022/01/30 11:44:15;;;;;;;;;;;;;;;16.22;36.54;100299.09;5000551;28;1169;-63
2022/01/30 11:46:41;;;;;;;;;;;;;;;16.47;36.45;100296.50;5011656;28;1263;-65
2022/01/30 11:49:09;;;;;;;;;;;;;;;17.02;34.97;100288.13;4988381;28;758;-67
2022/01/30 11:51:48;;;;;;;;;;;;;;;16.92;35.30;100294.53;5003776;28;1311;-61
2022/01/30 11:54:32;;;;;;;;;;;;;;;16.61;35.67;100289.25;4997159;28;759;-64
2022/01/30 11:56:58;;;;;;;;;;;;;;;16.42;36.07;100273.47;4997683;28;836;-64
2022/01/30 11:59:36;;;;;;;;;;;;;;;16.37;36.51;100272.69;4999159;28;893;-68
2022/01/30 12:02:20;;;;;;;;;;;;;;;16.27;36.39;100267.25;5002805;28;1907;-67
2022/01/30 12:05:15;;;;;;;;;;;;;;;16.56;35.76;100268.16;5010470;28;897;-68
2022/01/30 12:07:40;;;;;;;;;;;;;;;17.03;35.26;100274.13;4987469;28;1480;-65
2022/01/30 12:10:25;;;;;;;;;;;;;;;17.22;35.07;100260.47;4997027;28;825;-66
2022/01/30 12:12:51;;;;;;;;;;;;;;;17.16;35.20;100245.13;4998671;28;807;-65
2022/01/30 12:15:35;;;;;;;;;;;;;;;16.95;35.33;100255.50;4996900;28;908;-67
2022/01/30 12:18:00;;;;;;;;;;;;;;;16.61;36.13;100259.06;5011088;28;1007;-68
2022/01/30 12:20:27;;;;;;;;;;;;;;;16.52;36.44;100247.88;5015676;28;826;-73
2022/01/30 12:22:53;;;;;;;;;;;;;;;16.14;37.04;100242.09;5015650;28;1983;-65
2022/01/30 12:25:23;;;;;;;;;;;;;;;16.63;36.58;100232.13;5015344;28;1038;-65
2022/01/30 12:27:49;;;;;;;;;;;;;;;17.14;35.58;100230.06;5001270;28;1177;-64
2022/01/30 12:30:33;;;;;;;;;;;;;;;17.37;35.28;100228.44;5010497;28;1194;-68
2022/01/30 12:32:59;;;;;;;;;;;;;;;17.35;35.02;100220.50;5013104;28;1380;-64
2022/01/30 12:35:24;;;;;;;;;;;;;;;17.00;35.74;100214.28;5014280;28;1479;-62
2022/01/30 12:37:49;;;;;;;;;;;;;;;16.72;36.30;100208.47;5003578;28;849;-62
2022/01/30 12:40:18;;;;;;;;;;;;;;;16.63;36.53;100190.16;4998620;28;937;-63
2022/01/30 12:42:44;;;;;;;;;;;;;;;16.34;36.50;100183.53;4996503;28;1906;-62
2022/01/30 12:45:10;;;;;;;;;;;;;;;16.60;36.61;100166.84;4999919;28;893;-62
2022/01/30 12:47:56;;;;;;;;;;;;;;;17.51;34.77;100157.09;4996731;28;853;-61
2022/01/30 12:50:25;;;;;;;;;;;;;;;17.83;34.25;100167.38;4980737;28;810;-61
2022/01/30 12:52:53;;;;;;;;;;;;;;;17.10;35.49;100153.72;5017459;28;934;-62
2022/01/30 12:55:18;;;;;;;;;;;;;;;16.76;36.13;100151.06;5000242;28;854;-64
2022/01/30 12:57:45;;;;;;;;;;;;;;;16.45;36.74;100153.25;5010870;28;782;-60
2022/01/30 13:00:11;;;;;;;;;;;;;;;16.35;36.71;100149.47;5008242;28;873;-62
2022/01/30 13:02:37;;;;;;;;;;;;;;;16.88;36.02;100139.66;5000055;28;1910;-61
2022/01/30 13:05:03;;;;;;;;;;;;;;;16.86;35.98;100147.38;5001223;28;779;-63
2022/01/30 13:07:29;;;;;;;;;;;;;;;16.75;36.06;100124.69;4999910;28;835;-63
2022/01/30 13:10:15;;;;;;;;;;;;;;;16.16;37.31;100123.84;4999902;28;810;-62
2022/01/30 13:12:42;;;;;;;;;;;;;;;17.26;35.46;100120.56;5000095;28;866;-63
2022/01/30 13:15:12;;;;;;;;;;;;;;;17.03;35.76;100109.31;5006191;28;825;-62
2022/01/30 13:17:37;;;;;;;;;;;;;;;17.08;35.63;100116.66;5004197;28;838;-65
2022/01/30 13:20:03;;;;;;;;;;;;;;;17.65;34.68;100103.00;4999599;28;1043;-59
2022/01/30 13:22:30;;;;;;;;;;;;;;;17.47;34.90;100109.31;5014754;28;1914;-63
2022/01/30 13:24:55;;;;;;;;;;;;;;;17.07;35.44;100095.81;5000507;28;1051;-63
2022/01/30 13:27:21;;;;;;;;;;;;;;;16.68;36.14;100091.28;4999675;28;831;-62
2022/01/30 13:29:46;;;;;;;;;;;;;;;16.36;36.77;100085.28;5003281;28;889;-63
2022/01/30 13:32:12;;;;;;;;;;;;;;;16.55;36.82;100095.50;4982623;28;838;-61
2022/01/30 13:34:40;;;;;;;;;;;;;;;17.38;35.01;100082.50;4999647;28;759;-61
2022/01/30 13:37:07;;;;;;;;;;;;;;;17.22;35.03;100094.78;4999000;28;893;-61
2022/01/30 13:39:44;;;;;;;;;;;;;;;16.97;35.89;100093.19;4999455;28;987;-61
2022/01/30 13:45:03;;;;;;;;;;;;;;;16.73;35.18;100103.03;5008608;28;826;-62
2022/01/30 13:47:29;;;;;;;;;;;;;;;16.83;34.86;100085.63;5018025;28;861;-61
2022/01/30 13:49:54;;;;;;;;;;;;;;;17.02;34.53;100085.69;5017443;28;1274;-61
2022/01/30 13:52:20;;;;;;;;;;;;;;;17.37;33.53;100078.09;5018147;28;1475;-61
2022/01/30 13:55:01;;;;;;;;;;;;;;;17.70;33.09;100072.69;5016825;28;731;-62
2022/01/30 13:57:31;;;;;;;;;;;;;;;17.83;32.72;100064.81;4999124;28;908;-62
2022/01/30 14:00:09;;;;;;;;;;;;;;;18.01;32.36;100066.75;4999550;28;1107;-63
2022/01/30 14:02:34;;;;;;;;;;;;;;;18.12;32.10;100061.88;4998143;28;1905;-59
2022/01/30 14:05:18;;;;;;;;;;;;;;;18.20;31.91;100063.13;4981467;28;810;-58
2022/01/30 14:07:44;;;;;;;;;;;;;;;18.32;31.71;100049.69;5017687;28;849;-59
2022/01/30 14:10:09;;;;;;;;;;;;;;;17.61;32.80;100049.72;4999229;28;838;-60
2022/01/30 14:12:35;;;;;;;;;;;;;;;17.43;33.16;100054.09;4998835;28;865;-58
2022/01/30 14:15:02;;;;;;;;;;;;;;;16.67;33.99;100051.22;5003651;28;870;-57